createdAt,value
2023-04-02T00:01:27.900Z,101241.91
2023-04-02T00:04:23.636Z,101250.59
2023-04-02T00:06:57.424Z,101244.50
2023-04-02T00:09:34.565Z,101242.03
2023-04-02T00:12:17.110Z,101239.63
2023-04-02T00:14:51.609Z,101234.50
2023-04-02T00:17:24.635Z,101233.72
2023-04-02T00:19:58.256Z,101237.25
2023-04-02T00:22:30.040Z,101246.84
2023-04-02T00:25:01.456Z,101248.63
2023-04-02T00:27:32.303Z,101255.56
2023-04-02T00:30:00.699Z,101251.22
2023-04-02T00:32:34.310Z,101247.69
2023-04-02T00:35:03.622Z,101252.84
2023-04-02T00:37:39.121Z,101264.91
2023-04-02T00:40:16.758Z,101260.56
2023-04-02T00:42:46.607Z,101259.59
2023-04-02T00:45:24.261Z,101256.13
2023-04-02T00:47:54.357Z,101257.00
2023-04-02T00:50:29.081Z,101259.66
2023-04-02T00:53:00.611Z,101269.00
2023-04-02T00:55:36.262Z,101268.03
2023-04-02T00:58:05.732Z,101276.47
2023-04-02T01:00:36.860Z,101277.09
2023-04-02T01:03:36.566Z,101275.38
2023-04-02T01:06:11.619Z,101271.91
2023-04-02T01:08:52.496Z,101268.38
2023-04-02T01:11:37.974Z,101283.00
2023-04-02T01:14:18.778Z,101284.72
2023-04-02T01:16:54.171Z,101288.19
2023-04-02T01:19:52.749Z,101287.53
2023-04-02T01:22:30.973Z,101285.25
2023-04-02T01:24:59.708Z,101294.03
2023-04-02T01:27:34.118Z,101289.66
2023-04-02T01:30:08.559Z,101289.59
2023-04-02T01:32:37.350Z,101299.88
2023-04-02T01:35:06.398Z,101302.41
2023-04-02T01:37:45.065Z,101302.41
2023-04-02T01:40:32.227Z,101311.81
2023-04-02T01:43:07.900Z,101307.44
2023-04-02T01:45:38.611Z,101311.78
2023-04-02T01:48:08.254Z,101315.22
2023-04-02T01:50:38.694Z,101316.78
2023-04-02T01:53:09.745Z,101320.22
2023-04-02T01:55:43.107Z,101316.66
2023-04-02T01:58:13.967Z,101317.63
2023-04-02T02:00:51.087Z,101332.19
2023-04-02T02:03:21.798Z,101319.94
2023-04-02T02:05:50.929Z,101326.78
2023-04-02T02:08:31.162Z,101330.41
2023-04-02T02:11:00.530Z,101326.88
2023-04-02T02:13:29.018Z,101329.31
2023-04-02T02:16:01.015Z,101333.63
2023-04-02T02:18:30.693Z,101331.97
2023-04-02T02:21:00.888Z,101339.69
2023-04-02T02:23:31.066Z,101334.47
2023-04-02T02:26:00.193Z,101343.13
2023-04-02T02:28:30.555Z,101341.47
2023-04-02T02:31:04.091Z,101331.97
2023-04-02T02:33:36.068Z,101343.13
2023-04-02T02:36:13.509Z,101347.44
2023-04-02T02:38:56.992Z,101357.75
2023-04-02T02:41:38.851Z,101350.91
2023-04-02T02:44:15.950Z,101344.00
2023-04-02T02:46:49.715Z,101347.31
2023-04-02T02:49:23.290Z,101358.53
2023-04-02T02:51:58.775Z,101358.69
2023-04-02T02:54:36.131Z,101364.72
2023-04-02T02:57:08.931Z,101368.06
2023-04-02T02:59:38.878Z,101363.81
2023-04-02T03:02:09.113Z,101362.00
2023-04-02T03:04:39.201Z,101373.31
2023-04-02T03:07:16.324Z,101376.69
2023-04-02T03:09:53.750Z,101374.97
2023-04-02T03:12:43.548Z,101369.94
2023-04-02T03:15:19.499Z,101381.09
2023-04-02T03:17:56.588Z,101375.91
2023-04-02T03:20:33.008Z,101389.81
2023-04-02T03:23:08.163Z,101388.88
2023-04-02T03:25:42.505Z,101388.97
2023-04-02T03:28:18.172Z,101387.16
2023-04-02T03:30:51.693Z,101397.53
2023-04-02T03:33:27.375Z,101399.25
2023-04-02T03:36:02.291Z,101398.47
2023-04-02T03:38:37.014Z,101401.16
2023-04-02T03:41:12.650Z,101406.63
2023-04-02T03:43:45.325Z,101415.09
2023-04-02T03:46:17.832Z,101415.13
2023-04-02T03:48:52.696Z,101419.31
2023-04-02T03:51:25.938Z,101420.22
2023-04-02T03:53:56.555Z,101409.78
2023-04-02T03:56:30.712Z,101415.81
2023-04-02T03:59:12.925Z,101424.34
2023-04-02T04:01:49.296Z,101426.16
2023-04-02T04:04:20.759Z,101434.78
2023-04-02T04:06:52.832Z,101430.44
2023-04-02T04:09:27.926Z,101435.66
2023-04-02T04:12:09.161Z,101443.28
2023-04-02T04:14:45.179Z,101439.91
2023-04-02T04:17:24.834Z,101439.88
2023-04-02T04:20:02.057Z,101446.75
2023-04-02T04:22:31.908Z,101447.63
2023-04-02T04:25:22.459Z,101449.41
2023-04-02T04:28:07.880Z,101449.63
2023-04-02T04:30:48.863Z,101453.03
2023-04-02T04:33:23.306Z,101457.28
2023-04-02T04:36:00.481Z,101446.97
2023-04-02T04:38:39.421Z,101441.78
2023-04-02T04:41:17.138Z,101452.28
2023-04-02T04:43:53.530Z,101454.16
2023-04-02T04:46:29.123Z,101454.16
2023-04-02T04:49:03.448Z,101456.75
2023-04-02T04:51:38.311Z,101459.41
2023-04-02T04:54:13.632Z,101464.66
2023-04-02T04:56:48.680Z,101474.19
2023-04-02T04:59:24.025Z,101476.75
2023-04-02T05:01:59.930Z,101478.50
2023-04-02T05:04:34.758Z,101480.22
2023-04-02T05:07:09.369Z,101481.97
2023-04-02T05:09:42.733Z,101488.94
2023-04-02T05:12:22.935Z,101492.38
2023-04-02T05:14:57.899Z,101492.38
2023-04-02T05:17:32.739Z,101495.03
2023-04-02T05:20:08.251Z,101496.69
2023-04-02T05:22:45.514Z,101501.88
2023-04-02T05:25:23.784Z,101500.16
2023-04-02T05:27:59.561Z,101501.03
2023-04-02T05:30:50.354Z,101509.72
2023-04-02T05:33:28.280Z,101508.88
2023-04-02T05:36:02.477Z,101521.84
2023-04-02T05:38:38.093Z,101515.03
2023-04-02T05:41:13.078Z,101517.56
2023-04-02T05:43:47.186Z,101534.88
2023-04-02T05:46:19.386Z,101526.28
2023-04-02T05:48:51.205Z,101532.50
2023-04-02T05:51:25.524Z,101525.53
2023-04-02T05:53:58.483Z,101527.25
2023-04-02T05:56:32.078Z,101523.91
2023-04-02T05:59:08.701Z,101533.44
2023-04-02T06:01:43.069Z,101532.63
2023-04-02T06:04:22.683Z,101536.03
2023-04-02T06:06:58.274Z,101535.16
2023-04-02T06:09:40.021Z,101542.13
2023-04-02T06:12:20.532Z,101538.72
2023-04-02T06:14:49.363Z,101540.50
2023-04-02T06:17:20.497Z,101543.97
2023-04-02T06:19:49.384Z,101545.63
2023-04-02T06:22:24.120Z,101540.41
2023-04-02T06:25:02.862Z,101549.78
2023-04-02T06:27:40.380Z,101545.34
2023-04-02T06:30:18.804Z,101545.13
2023-04-02T06:32:50.447Z,101550.31
2023-04-02T06:35:19.933Z,101545.91
2023-04-02T06:37:59.979Z,101551.75
2023-04-02T06:40:41.498Z,101552.66
2023-04-02T06:43:33.424Z,101563.19
2023-04-02T06:46:32.239Z,101573.56
2023-04-02T06:49:15.005Z,101577.03
2023-04-02T06:51:46.178Z,101582.06
2023-04-02T06:54:16.645Z,101571.25
2023-04-02T06:56:50.906Z,101567.47
2023-04-02T06:59:28.381Z,101573.06
2023-04-02T07:02:03.559Z,101567.56
2023-04-02T07:04:33.189Z,101560.56
2023-04-02T07:07:01.513Z,101559.50
2023-04-02T07:09:33.093Z,101565.03
2023-04-02T07:12:12.563Z,101568.66
2023-04-02T07:14:41.502Z,101575.06
2023-04-02T07:17:18.001Z,101577.69
2023-04-02T07:19:49.710Z,101576.66
2023-04-02T07:22:21.431Z,101586.88
2023-04-02T07:24:53.756Z,101591.88
2023-04-02T07:27:23.856Z,101595.81
2023-04-02T07:29:52.069Z,101594.88
2023-04-02T07:32:20.780Z,101613.94
2023-04-02T07:34:50.071Z,101606.13
2023-04-02T07:37:18.244Z,101621.84
2023-04-02T07:39:46.363Z,101621.16
2023-04-02T07:42:14.961Z,101625.38
2023-04-02T07:44:44.760Z,101616.69
2023-04-02T07:47:12.883Z,101621.31
2023-04-02T07:49:41.062Z,101613.03
2023-04-02T07:52:09.261Z,101622.53
2023-04-02T07:54:38.383Z,101615.78
2023-04-02T07:57:06.659Z,101624.22
2023-04-02T07:59:34.837Z,101615.47
2023-04-02T08:02:04.796Z,101627.84
2023-04-02T08:04:33.036Z,101624.84
2023-04-02T08:07:01.688Z,101634.84
2023-04-02T08:09:29.868Z,101632.84
2023-04-02T08:11:57.993Z,101628.91
2023-04-02T08:14:26.759Z,101645.03
2023-04-02T08:16:57.103Z,101648.97
2023-04-02T08:19:27.053Z,101650.47
2023-04-02T08:21:56.086Z,101649.06
2023-04-02T08:24:24.614Z,101648.47
2023-04-02T08:26:54.028Z,101651.38
2023-04-02T08:29:22.393Z,101649.34
2023-04-02T08:31:51.155Z,101657.91
2023-04-02T08:34:19.331Z,101653.97
2023-04-02T08:36:49.182Z,101655.22
2023-04-02T08:39:17.368Z,101652.63
2023-04-02T08:41:51.482Z,101652.53
2023-04-02T08:44:42.424Z,101648.22
2023-04-02T08:47:11.963Z,101647.03
2023-04-02T08:49:46.502Z,101649.78
2023-04-02T08:52:25.186Z,101656.00
2023-04-02T08:54:53.609Z,101663.28
2023-04-02T08:57:32.918Z,101655.53
2023-04-02T09:00:10.991Z,101667.31
2023-04-02T09:02:43.492Z,101676.75
2023-04-02T09:05:20.089Z,101678.88
2023-04-02T09:07:52.550Z,101673.06
2023-04-02T09:10:22.303Z,101672.50
2023-04-02T09:12:54.049Z,101677.00
2023-04-02T09:15:30.685Z,101673.66
2023-04-02T09:18:05.247Z,101672.91
2023-04-02T09:20:33.488Z,101681.09
2023-04-02T09:23:04.708Z,101674.03
2023-04-02T09:25:33.513Z,101684.09
2023-04-02T09:28:05.029Z,101687.81
2023-04-02T09:30:44.655Z,101682.75
2023-04-02T09:33:13.084Z,101687.94
2023-04-02T09:35:57.890Z,101689.75
2023-04-02T09:38:30.802Z,101703.22
2023-04-02T09:41:01.741Z,101703.28
2023-04-02T09:43:31.825Z,101711.44
2023-04-02T09:46:02.969Z,101713.81
2023-04-02T09:48:35.485Z,101700.16
2023-04-02T09:51:12.706Z,101714.00
2023-04-02T09:53:45.995Z,101712.00
2023-04-02T09:56:17.591Z,101705.84
2023-04-02T09:58:47.426Z,101704.41
2023-04-02T10:01:32.091Z,101719.81
2023-04-02T10:04:01.018Z,101719.97
2023-04-02T10:06:32.212Z,101717.50
2023-04-02T10:09:21.383Z,101721.84
2023-04-02T10:11:51.921Z,101721.22
2023-04-02T10:14:26.068Z,101730.53
2023-04-02T10:16:58.056Z,101730.28
2023-04-02T10:19:32.546Z,101738.72
2023-04-02T10:22:07.065Z,101737.09
2023-04-02T10:24:36.919Z,101744.38
2023-04-02T10:27:22.929Z,101744.09
2023-04-02T10:30:10.621Z,101758.97
2023-04-02T10:32:45.766Z,101755.16
2023-04-02T10:35:22.677Z,101754.00
2023-04-02T10:38:13.756Z,101761.00
2023-04-02T10:40:49.214Z,101758.00
2023-04-02T10:43:54.239Z,101757.97
2023-04-02T10:46:29.271Z,101762.44
2023-04-02T10:49:05.716Z,101764.81
2023-04-02T10:51:41.631Z,101761.66
2023-04-02T10:54:23.218Z,101776.63
2023-04-02T10:56:55.578Z,101772.75
2023-04-02T10:59:27.523Z,101782.53
2023-04-02T11:01:59.354Z,101785.50
2023-04-02T11:04:33.563Z,101784.22
2023-04-02T11:07:14.072Z,101786.00
2023-04-02T11:09:45.520Z,101789.63
2023-04-02T11:12:24.562Z,101792.75
2023-04-02T11:14:55.480Z,101797.44
2023-04-02T11:17:24.578Z,101805.16
2023-04-02T11:19:52.886Z,101807.47
2023-04-02T11:22:23.279Z,101807.19
2023-04-02T11:24:53.618Z,101810.03
2023-04-02T11:27:29.108Z,101807.06
2023-04-02T11:30:06.350Z,101795.53
2023-04-02T11:32:42.836Z,101798.44
2023-04-02T11:35:37.508Z,101799.09
2023-04-02T11:38:47.481Z,101798.00
2023-04-02T11:41:15.653Z,101798.41
2023-04-02T11:43:52.898Z,101795.91
2023-04-02T11:46:48.595Z,101793.41
2023-04-02T11:49:40.110Z,101808.00
2023-04-02T11:52:27.786Z,101818.69
2023-04-02T11:55:24.471Z,101815.53
2023-04-02T11:58:28.207Z,101817.19
2023-04-02T12:01:38.470Z,101818.13
2023-04-02T12:04:39.999Z,101826.50
2023-04-02T12:07:52.402Z,101817.28
2023-04-02T12:10:23.605Z,101820.69
2023-04-02T12:12:52.768Z,101825.59
2023-04-02T12:15:35.863Z,101822.31
2023-04-02T12:18:12.569Z,101818.00
2023-04-02T12:20:42.853Z,101816.69
2023-04-02T12:23:20.180Z,101818.00
2023-04-02T12:25:56.499Z,101815.38
2023-04-02T12:28:24.671Z,101812.50
2023-04-02T12:31:04.630Z,101812.44
2023-04-02T12:33:37.568Z,101807.47
2023-04-02T12:36:20.859Z,101820.38
2023-04-02T12:38:49.745Z,101821.00
2023-04-02T12:41:27.206Z,101820.75
2023-04-02T12:43:59.496Z,101821.25
2023-04-02T12:46:28.524Z,101821.53
2023-04-02T12:49:05.251Z,101812.94
2023-04-02T12:51:34.185Z,101822.22
2023-04-02T12:54:06.584Z,101819.84
2023-04-02T12:56:35.109Z,101817.28
2023-04-02T12:59:03.408Z,101826.63
2023-04-02T13:01:34.028Z,101819.78
2023-04-02T13:04:06.465Z,101820.81
2023-04-02T13:06:35.822Z,101824.84
2023-04-02T13:09:06.683Z,101821.28
2023-04-02T13:11:36.982Z,101822.22
2023-04-02T13:14:07.481Z,101817.75
2023-04-02T13:16:37.282Z,101821.69
2023-04-02T13:19:32.347Z,101828.81
2023-04-02T13:22:03.020Z,101814.59
2023-04-02T13:24:32.632Z,101829.00
2023-04-02T13:27:02.649Z,101817.09
2023-04-02T13:29:32.480Z,101819.38
2023-04-02T13:32:02.825Z,101824.81
2023-04-02T13:34:32.557Z,101820.03
2023-04-02T13:37:00.896Z,101825.75
2023-04-02T13:39:30.390Z,101821.94
2023-04-02T13:41:59.988Z,101819.88
2023-04-02T13:44:30.803Z,101821.88
2023-04-02T13:46:59.581Z,101819.75
2023-04-02T13:49:28.807Z,101826.47
2023-04-02T13:52:00.699Z,101823.59
2023-04-02T13:54:34.845Z,101814.16
2023-04-02T13:57:03.220Z,101821.19
2023-04-02T13:59:31.505Z,101832.69
2023-04-02T14:02:07.621Z,101819.88
2023-04-02T14:04:43.706Z,101827.75
2023-04-02T14:07:34.803Z,101832.63
2023-04-02T14:10:19.539Z,101824.50
2023-04-02T14:13:01.855Z,101822.91
2023-04-02T14:15:40.883Z,101817.91
2023-04-02T14:18:23.367Z,101818.13
2023-04-02T14:20:56.463Z,101816.75
2023-04-02T14:23:40.687Z,101815.22
2023-04-02T14:26:18.517Z,101823.06
2023-04-02T14:28:58.055Z,101826.56
2023-04-02T14:31:35.166Z,101826.00
2023-04-02T14:34:09.915Z,101818.75
2023-04-02T14:36:48.753Z,101831.16
2023-04-02T14:39:27.316Z,101824.75
2023-04-02T14:42:01.194Z,101821.91
2023-04-02T14:44:37.424Z,101824.72
2023-04-02T14:47:18.811Z,101817.66
2023-04-02T14:49:54.704Z,101824.28
2023-04-02T14:52:24.903Z,101826.69
2023-04-02T14:55:00.647Z,101828.66
2023-04-02T14:57:31.660Z,101830.09
2023-04-02T15:00:04.732Z,101826.84
2023-04-02T15:02:44.876Z,101823.84
2023-04-02T15:05:19.846Z,101821.97
2023-04-02T15:07:52.759Z,101820.63
2023-04-02T15:10:27.796Z,101827.59
2023-04-02T15:12:57.128Z,101834.25
2023-04-02T15:15:41.523Z,101829.19
2023-04-02T15:18:15.707Z,101834.56
2023-04-02T15:20:54.192Z,101825.38
2023-04-02T15:23:35.674Z,101833.38
2023-04-02T15:26:14.187Z,101823.25
2023-04-02T15:28:48.109Z,101818.88
2023-04-02T15:31:16.597Z,101821.69
2023-04-02T15:33:54.262Z,101820.28
2023-04-02T15:36:46.845Z,101822.13
2023-04-02T15:39:40.203Z,101832.25
2023-04-02T15:42:19.070Z,101821.09
2023-04-02T15:45:11.671Z,101813.22
2023-04-02T15:47:47.113Z,101818.94
2023-04-02T15:50:34.330Z,101821.94
2023-04-02T15:53:10.958Z,101818.22
2023-04-02T15:55:44.092Z,101831.25
2023-04-02T15:58:29.964Z,101826.56
2023-04-02T16:01:11.728Z,101823.53
2023-04-02T16:03:57.930Z,101832.06
2023-04-02T16:06:58.452Z,101832.25
2023-04-02T16:09:45.447Z,101837.25
2023-04-02T16:15:30.744Z,101836.88
2023-04-02T16:18:14.097Z,101851.94
2023-04-02T16:20:56.000Z,101834.34
2023-04-02T16:23:34.036Z,101838.38
2023-04-02T16:26:19.285Z,101838.25
2023-04-02T16:28:57.873Z,101844.56
2023-04-02T16:31:34.268Z,101845.44
2023-04-02T16:34:10.978Z,101851.13
2023-04-02T16:36:57.910Z,101840.19
2023-04-02T16:39:51.746Z,101837.63
2023-04-02T16:42:35.514Z,101842.31
2023-04-02T16:45:22.063Z,101840.78
2023-04-02T16:48:09.112Z,101853.25
2023-04-02T16:50:47.429Z,101855.53
2023-04-02T16:53:36.835Z,101854.41
2023-04-02T16:56:25.331Z,101850.41
2023-04-02T16:58:59.985Z,101856.72
2023-04-02T17:01:57.727Z,101855.38
2023-04-02T17:04:56.483Z,101863.56
2023-04-02T17:07:35.794Z,101859.44
2023-04-02T17:10:37.543Z,101867.78
2023-04-02T17:13:19.275Z,101868.06
2023-04-02T17:15:52.123Z,101868.94
2023-04-02T17:18:24.823Z,101866.50
2023-04-02T17:20:54.025Z,101873.69
2023-04-02T17:23:25.161Z,101870.22
2023-04-02T17:25:58.430Z,101876.34
2023-04-02T17:28:37.080Z,101875.59
2023-04-02T17:31:11.839Z,101881.06
2023-04-02T17:33:40.199Z,101883.84
2023-04-02T17:36:34.332Z,101882.50
2023-04-02T17:39:18.655Z,101888.16
2023-04-02T17:41:56.831Z,101883.22
2023-04-02T17:44:46.392Z,101888.53
2023-04-02T17:47:22.009Z,101895.28
2023-04-02T17:50:05.648Z,101898.63
2023-04-02T17:52:41.500Z,101907.44
2023-04-02T17:55:20.346Z,101913.22
2023-04-02T17:58:01.372Z,101907.81
2023-04-02T18:00:59.325Z,101912.53
2023-04-02T18:03:57.360Z,101913.47
2023-04-02T18:06:33.209Z,101923.06
2023-04-02T18:09:19.376Z,101918.91
2023-04-02T18:12:01.553Z,101914.88
2023-04-02T18:14:44.786Z,101913.38
2023-04-02T18:17:22.545Z,101912.56
2023-04-02T18:20:10.468Z,101917.72
2023-04-02T18:22:47.058Z,101916.84
2023-04-02T18:25:40.773Z,101917.75
2023-04-02T18:28:23.336Z,101923.88
2023-04-02T18:30:59.080Z,101925.84
2023-04-02T18:33:51.326Z,101927.06
2023-04-02T18:36:24.777Z,101924.72
2023-04-02T18:39:01.334Z,101926.66
2023-04-02T18:41:44.931Z,101931.97
2023-04-02T18:44:38.903Z,101929.59
2023-04-02T18:47:19.121Z,101926.22
2023-04-02T18:49:51.931Z,101929.78
2023-04-02T18:52:21.532Z,101932.47
2023-04-02T18:54:53.641Z,101935.19
2023-04-02T18:57:26.560Z,101930.97
2023-04-02T19:00:01.545Z,101933.63
2023-04-02T19:02:39.728Z,101925.91
2023-04-02T19:05:18.957Z,101925.97
2023-04-02T19:07:56.680Z,101926.03
2023-04-02T19:10:32.412Z,101924.34
2023-04-02T19:13:00.799Z,101930.47
2023-04-02T19:15:41.495Z,101932.22
2023-04-02T19:18:19.028Z,101936.56
2023-04-02T19:20:57.537Z,101934.81
2023-04-02T19:23:40.903Z,101941.69
2023-04-02T19:26:14.651Z,101952.94
2023-04-02T19:28:49.782Z,101947.75
2023-04-02T19:31:34.382Z,101943.41
2023-04-02T19:34:16.842Z,101946.81
2023-04-02T19:36:50.802Z,101946.78
2023-04-02T19:39:36.661Z,101945.06
2023-04-02T19:42:12.587Z,101943.38
2023-04-02T19:44:44.823Z,101943.38
2023-04-02T19:47:15.802Z,101939.97
2023-04-02T19:49:44.211Z,101944.25
2023-04-02T19:52:13.299Z,101943.38
2023-04-02T19:54:41.479Z,101945.13
2023-04-02T19:57:13.297Z,101946.91
2023-04-02T19:59:41.685Z,101947.84
2023-04-02T20:02:10.765Z,101940.06
2023-04-02T20:04:40.531Z,101940.09
2023-04-02T20:07:08.740Z,101950.47
2023-04-02T20:09:36.983Z,101949.59
2023-04-02T20:12:07.167Z,101947.00
2023-04-02T20:14:35.468Z,101946.16
2023-04-02T20:17:03.761Z,101941.88
2023-04-02T20:19:32.242Z,101941.84
2023-04-02T20:22:01.889Z,101947.03
2023-04-02T20:24:30.117Z,101947.06
2023-04-02T20:26:58.391Z,101953.97
2023-04-02T20:29:29.509Z,101945.41
2023-04-02T20:31:57.748Z,101951.47
2023-04-02T20:34:26.642Z,101949.72
2023-04-02T20:36:55.046Z,101955.81
2023-04-02T20:39:24.906Z,101955.81
2023-04-02T20:41:53.208Z,101947.19
2023-04-02T20:44:21.571Z,101949.84
2023-04-02T20:46:49.832Z,101948.13
2023-04-02T20:49:18.091Z,101953.34
2023-04-02T20:51:47.911Z,101954.19
2023-04-02T20:54:16.920Z,101958.50
2023-04-02T20:56:46.547Z,101949.03
2023-04-02T20:59:14.808Z,101954.22
2023-04-02T21:01:43.242Z,101960.28
2023-04-02T21:04:11.550Z,101952.56
2023-04-02T21:06:40.993Z,101959.50
2023-04-02T21:09:14.591Z,101958.63
2023-04-02T21:11:43.834Z,101951.78
2023-04-02T21:14:13.656Z,101944.09
2023-04-02T21:16:42.483Z,101945.00
2023-04-02T21:19:11.465Z,101950.22
2023-04-02T21:21:40.732Z,101958.84
2023-04-02T21:24:10.516Z,101951.97
2023-04-02T21:26:42.279Z,101964.88
2023-04-02T21:29:14.205Z,101956.25
2023-04-02T21:31:42.918Z,101957.97
2023-04-02T21:34:15.243Z,101957.97
2023-04-02T21:36:45.823Z,101962.25
2023-04-02T21:39:18.433Z,101961.34
2023-04-02T21:41:50.131Z,101963.94
2023-04-02T21:44:22.174Z,101964.81
2023-04-02T21:46:53.018Z,101965.72
2023-04-02T21:49:23.193Z,101963.16
2023-04-02T21:51:52.717Z,101962.31
2023-04-02T21:54:21.167Z,101961.47
2023-04-02T21:56:50.160Z,101961.50
2023-04-02T21:59:19.982Z,101963.22
2023-04-02T22:01:50.026Z,101965.81
2023-04-02T22:04:20.726Z,101966.69
2023-04-02T22:06:49.856Z,101967.53
2023-04-02T22:09:19.920Z,101971.88
2023-04-02T22:11:50.134Z,101967.53
2023-04-02T22:14:19.797Z,101961.50
2023-04-02T22:16:48.454Z,101967.53
2023-04-02T22:19:17.670Z,101971.81
2023-04-02T22:21:46.095Z,101964.03
2023-04-02T22:24:18.199Z,101957.13
2023-04-02T22:26:47.847Z,101959.75
2023-04-02T22:29:16.574Z,101955.41
2023-04-02T22:31:46.370Z,101959.72
2023-04-02T22:34:14.594Z,101956.22
2023-04-02T22:36:42.982Z,101957.03
2023-04-02T22:39:12.576Z,101956.97
2023-04-02T22:41:41.098Z,101962.91
2023-04-02T22:44:14.821Z,101957.66
2023-04-02T22:46:43.320Z,101960.25
2023-04-02T22:49:19.226Z,101961.06
2023-04-02T22:51:47.981Z,101959.28
2023-04-02T22:54:16.356Z,101953.16
2023-04-02T22:56:44.557Z,101953.97
2023-04-02T22:59:12.806Z,101959.97
2023-04-02T23:01:41.500Z,101954.75
2023-04-02T23:04:09.911Z,101953.00
2023-04-02T23:06:39.651Z,101950.38
2023-04-02T23:09:07.970Z,101948.59
2023-04-02T23:11:36.381Z,101952.88
2023-04-02T23:14:04.588Z,101954.53
2023-04-02T23:16:33.028Z,101955.34
2023-04-02T23:19:02.696Z,101952.72
2023-04-02T23:21:31.173Z,101943.28
2023-04-02T23:24:01.011Z,101954.50
2023-04-02T23:26:31.537Z,101953.59
2023-04-02T23:29:00.918Z,101960.50
2023-04-02T23:31:29.834Z,101947.50
2023-04-02T23:33:58.156Z,101945.81
2023-04-02T23:36:28.150Z,101953.59
2023-04-02T23:39:01.411Z,101957.16
2023-04-02T23:41:32.343Z,101957.22
2023-04-02T23:44:00.774Z,101964.13
2023-04-02T23:46:30.283Z,101964.06
2023-04-02T23:48:59.586Z,101955.38
2023-04-02T23:51:28.615Z,101949.34
2023-04-02T23:53:57.268Z,101951.97
2023-04-02T23:56:26.091Z,101952.00
2023-04-02T23:58:55.916Z,101950.28
